createdAt,value
2023-03-06T00:03:48.403Z,81.75
2023-03-06T00:08:50.916Z,81.68
2023-03-06T00:13:58.824Z,81.65
2023-03-06T00:19:00.583Z,81.58
2023-03-06T00:24:02.298Z,81.47
2023-03-06T00:29:04.151Z,81.48
2023-03-06T00:34:05.912Z,81.79
2023-03-06T00:39:08.184Z,81.68
2023-03-06T00:44:10.654Z,81.76
2023-03-06T00:49:15.099Z,82.07
2023-03-06T00:54:36.875Z,82.45
2023-03-06T00:59:38.575Z,82.74
2023-03-06T01:04:40.360Z,83.05
2023-03-06T01:09:42.053Z,82.79
2023-03-06T01:14:43.886Z,82.69
2023-03-06T01:19:45.577Z,82.98
2023-03-06T01:24:48.632Z,83.35
2023-03-06T01:29:50.323Z,83.52
2023-03-06T01:34:52.080Z,83.22
2023-03-06T01:39:53.762Z,83.35
2023-03-06T01:45:06.474Z,83.34
2023-03-06T01:50:11.895Z,83.33
2023-03-06T01:55:18.079Z,83.23
2023-03-06T02:00:26.034Z,83.04
2023-03-06T02:05:27.944Z,83.16
2023-03-06T02:10:30.144Z,83.10
2023-03-06T02:15:31.999Z,83.05
2023-03-06T02:20:40.290Z,82.98
2023-03-06T02:25:50.478Z,83.15
2023-03-06T02:30:54.935Z,82.95
2023-03-06T02:36:03.439Z,82.89
2023-03-06T02:41:08.251Z,83.06
2023-03-06T02:46:10.261Z,83.24
2023-03-06T02:51:12.306Z,82.89
2023-03-06T02:56:15.353Z,82.88
2023-03-06T03:01:17.765Z,82.61
2023-03-06T03:06:19.918Z,82.39
2023-03-06T03:11:21.986Z,82.38
2023-03-06T03:16:23.931Z,82.51
2023-03-06T03:21:26.126Z,82.06
2023-03-06T03:26:29.045Z,81.82
2023-03-06T03:31:35.513Z,81.78
2023-03-06T03:36:38.136Z,81.78
2023-03-06T03:41:41.332Z,81.94
2023-03-06T03:46:44.107Z,81.89
2023-03-06T03:51:50.258Z,81.94
2023-03-06T03:56:52.958Z,81.80
2023-03-06T04:01:59.460Z,81.63
2023-03-06T04:07:02.349Z,81.89
2023-03-06T04:12:04.330Z,81.80
2023-03-06T04:17:07.101Z,82.07
2023-03-06T04:22:09.172Z,82.12
2023-03-06T04:27:12.111Z,82.02
2023-03-06T04:32:14.949Z,81.92
2023-03-06T04:37:20.981Z,81.91
2023-03-06T04:42:23.168Z,81.81
2023-03-06T04:47:24.960Z,81.96
2023-03-06T04:52:26.646Z,82.39
2023-03-06T04:57:28.294Z,82.62
2023-03-06T05:02:30.302Z,82.68
2023-03-06T05:07:32.140Z,82.64
2023-03-06T05:12:38.037Z,82.80
2023-03-06T05:17:40.165Z,82.85
2023-03-06T05:22:42.418Z,82.92
2023-03-06T05:27:44.128Z,83.14
2023-03-06T05:32:45.882Z,82.94
2023-03-06T05:37:48.679Z,82.92
2023-03-06T05:42:50.651Z,82.74
2023-03-06T05:47:52.359Z,82.59
2023-03-06T05:52:54.365Z,82.52
2023-03-06T05:57:56.186Z,82.34
2023-03-06T06:03:01.128Z,81.97
2023-03-06T06:08:03.142Z,81.93
2023-03-06T06:13:05.335Z,81.78
2023-03-06T06:18:07.083Z,81.24
2023-03-06T06:23:11.423Z,80.79
2023-03-06T06:28:13.159Z,80.54
2023-03-06T06:33:14.830Z,80.07
2023-03-06T06:38:16.770Z,79.72
2023-03-06T06:43:18.425Z,79.56
2023-03-06T06:48:20.204Z,78.96
2023-03-06T06:53:22.096Z,78.06
2023-03-06T06:58:23.948Z,77.64
2023-03-06T07:03:25.632Z,76.75
2023-03-06T07:08:27.934Z,76.31
2023-03-06T07:13:29.863Z,75.76
2023-03-06T07:18:31.649Z,75.34
2023-03-06T07:23:33.454Z,74.55
2023-03-06T07:28:46.290Z,73.87
2023-03-06T07:33:54.822Z,73.02
2023-03-06T07:38:56.566Z,72.51
2023-03-06T07:43:58.587Z,71.01
2023-03-06T07:49:00.302Z,70.90
2023-03-06T07:54:02.072Z,70.58
2023-03-06T07:59:03.994Z,70.04
2023-03-06T08:04:06.276Z,69.76
2023-03-06T08:09:08.144Z,69.12
2023-03-06T08:14:09.848Z,68.76
2023-03-06T08:19:11.557Z,68.39
2023-03-06T08:24:16.603Z,67.66
2023-03-06T08:29:18.723Z,67.08
2023-03-06T08:34:24.321Z,66.81
2023-03-06T08:39:26.130Z,65.99
2023-03-06T08:44:27.835Z,66.57
2023-03-06T08:49:30.133Z,66.31
2023-03-06T08:54:34.175Z,66.44
2023-03-06T08:59:37.140Z,66.47
2023-03-06T09:04:38.823Z,67.22
2023-03-06T09:09:40.797Z,66.83
2023-03-06T09:14:42.483Z,66.35
2023-03-06T09:19:44.372Z,66.01
2023-03-06T09:24:46.413Z,65.55
2023-03-06T09:29:48.968Z,65.64
2023-03-06T09:34:50.709Z,64.58
2023-03-06T09:39:52.476Z,63.73
2023-03-06T09:44:58.301Z,64.33
2023-03-06T09:50:24.366Z,63.59
2023-03-06T09:55:31.205Z,63.29
2023-03-06T10:00:44.279Z,62.18
2023-03-06T10:05:53.852Z,63.64
2023-03-06T10:11:18.508Z,63.15
2023-03-06T10:16:30.611Z,62.21
2023-03-06T10:22:00.141Z,61.34
2023-03-06T10:27:27.070Z,59.46
2023-03-06T10:32:48.564Z,58.13
2023-03-06T10:37:51.025Z,56.08
2023-03-06T10:43:05.110Z,59.21
2023-03-06T10:48:19.753Z,58.63
2023-03-06T10:53:29.017Z,57.87
2023-03-06T10:58:32.614Z,57.04
2023-03-06T11:03:36.602Z,56.32
2023-03-06T11:08:39.836Z,55.99
2023-03-06T11:13:43.756Z,54.69
2023-03-06T11:18:56.757Z,53.48
2023-03-06T11:24:14.283Z,55.06
2023-03-06T11:29:47.221Z,54.30
2023-03-06T11:34:59.785Z,54.36
2023-03-06T11:40:11.972Z,55.19
2023-03-06T11:45:37.368Z,54.81
2023-03-06T11:51:06.395Z,53.56
2023-03-06T11:56:43.720Z,53.51
2023-03-06T12:01:48.183Z,51.78
2023-03-06T12:07:31.802Z,52.03
2023-03-06T12:13:12.522Z,52.65
2023-03-06T12:18:41.499Z,53.09
2023-03-06T12:24:02.479Z,52.44
2023-03-06T12:30:01.887Z,50.75
2023-03-06T12:35:35.665Z,51.55
2023-03-06T12:40:55.585Z,52.27
2023-03-06T12:46:03.586Z,52.86
2023-03-06T12:51:07.480Z,52.78
2023-03-06T12:56:13.414Z,52.01
2023-03-06T13:01:52.590Z,52.49
2023-03-06T13:07:22.788Z,54.07
2023-03-06T13:12:36.398Z,49.83
2023-03-06T13:17:38.714Z,48.98
2023-03-06T13:22:42.619Z,47.54
2023-03-06T13:27:53.354Z,46.70
2023-03-06T13:32:56.144Z,48.06
2023-03-06T13:38:00.976Z,47.08
2023-03-06T13:43:15.754Z,46.97
2023-03-06T13:48:43.073Z,47.17
2023-03-06T13:54:04.120Z,47.30
2023-03-06T13:59:31.967Z,48.01
2023-03-06T14:04:46.197Z,50.54
2023-03-06T14:09:56.108Z,54.60
2023-03-06T14:15:12.232Z,58.76
2023-03-06T14:20:17.669Z,61.41
2023-03-06T14:25:31.406Z,63.02
2023-03-06T14:30:33.427Z,63.62
2023-03-06T14:35:35.187Z,63.95
2023-03-06T14:40:44.975Z,64.07
2023-03-06T14:45:57.775Z,64.06
2023-03-06T14:50:59.473Z,63.78
2023-03-06T14:56:06.043Z,62.83
2023-03-06T15:01:16.092Z,63.11
2023-03-06T15:06:35.805Z,63.17
2023-03-06T15:12:04.915Z,63.37
2023-03-06T15:17:19.201Z,63.76
2023-03-06T15:22:25.346Z,64.05
2023-03-06T15:27:30.496Z,64.08
2023-03-06T15:32:34.867Z,64.05
2023-03-06T15:37:36.581Z,64.37
2023-03-06T15:42:38.287Z,64.51
2023-03-06T15:47:39.945Z,64.53
2023-03-06T15:52:41.825Z,64.58
2023-03-06T15:57:56.985Z,64.67
2023-03-06T16:02:59.051Z,64.83
2023-03-06T16:08:00.727Z,65.10
2023-03-06T16:13:06.688Z,65.13
2023-03-06T16:18:11.686Z,65.13
2023-03-06T16:23:15.041Z,65.42
2023-03-06T16:28:17.017Z,65.52
2023-03-06T16:33:18.693Z,65.63
2023-03-06T16:38:20.355Z,65.94
2023-03-06T16:43:22.079Z,65.84
2023-03-06T16:48:23.844Z,65.87
2023-03-06T16:53:25.750Z,66.18
2023-03-06T16:58:29.938Z,66.56
2023-03-06T17:03:31.629Z,66.24
2023-03-06T17:08:33.324Z,66.54
2023-03-06T17:13:35.087Z,66.92
2023-03-06T17:18:36.797Z,67.11
2023-03-06T17:23:38.752Z,66.91
2023-03-06T17:28:41.656Z,66.37
2023-03-06T17:33:44.005Z,66.11
2023-03-06T17:38:46.026Z,66.60
2023-03-06T17:43:47.797Z,66.67
2023-03-06T17:48:49.528Z,66.57
2023-03-06T17:53:52.254Z,65.87
2023-03-06T17:58:54.058Z,65.46
2023-03-06T18:03:56.443Z,65.33
2023-03-06T18:08:58.474Z,65.16
2023-03-06T18:14:00.196Z,65.11
2023-03-06T18:19:02.293Z,64.93
2023-03-06T18:24:04.161Z,65.09
2023-03-06T18:29:06.056Z,65.20
2023-03-06T18:34:10.990Z,65.27
2023-03-06T18:39:14.035Z,65.54
2023-03-06T18:44:17.623Z,65.65
2023-03-06T18:49:19.509Z,65.98
2023-03-06T18:54:21.584Z,66.18
2023-03-06T18:59:23.708Z,66.44
2023-03-06T19:04:26.165Z,66.94
2023-03-06T19:09:28.047Z,67.15
2023-03-06T19:14:30.203Z,67.43
2023-03-06T19:19:32.078Z,67.42
2023-03-06T19:24:34.151Z,67.66
2023-03-06T19:29:36.282Z,67.76
2023-03-06T19:34:37.960Z,68.19
2023-03-06T19:39:39.686Z,68.28
2023-03-06T19:44:41.498Z,69.03
2023-03-06T19:49:43.507Z,69.66
2023-03-06T19:54:47.225Z,69.86
2023-03-06T19:59:51.365Z,70.58
2023-03-06T20:04:54.567Z,70.75
2023-03-06T20:10:00.414Z,71.11
2023-03-06T20:15:03.714Z,71.79
2023-03-06T20:20:06.098Z,72.54
2023-03-06T20:25:10.685Z,72.63
2023-03-06T20:30:12.552Z,72.71
2023-03-06T20:35:14.255Z,73.17
2023-03-06T20:40:16.036Z,73.44
2023-03-06T20:45:17.803Z,73.96
2023-03-06T20:50:19.457Z,74.05
2023-03-06T20:55:21.363Z,74.49
2023-03-06T21:00:23.026Z,74.20
2023-03-06T21:05:24.738Z,74.41
2023-03-06T21:10:26.509Z,74.29
2023-03-06T21:15:30.054Z,74.70
2023-03-06T21:20:33.686Z,75.39
2023-03-06T21:25:35.451Z,75.87
2023-03-06T21:30:37.170Z,75.88
2023-03-06T21:35:41.400Z,76.09
2023-03-06T21:40:44.679Z,76.30
2023-03-06T21:45:48.061Z,76.28
2023-03-06T21:50:49.748Z,76.35
2023-03-06T21:55:51.491Z,76.55
2023-03-06T22:00:53.712Z,76.73
2023-03-06T22:05:56.669Z,76.82
2023-03-06T22:10:59.056Z,76.69
2023-03-06T22:16:07.793Z,77.07
2023-03-06T22:21:12.199Z,77.21
2023-03-06T22:26:15.440Z,77.56
2023-03-06T22:31:26.307Z,77.75
2023-03-06T22:36:32.718Z,78.33
2023-03-06T22:41:35.620Z,78.44
2023-03-06T22:46:57.839Z,78.05
2023-03-06T22:52:19.686Z,77.89
2023-03-06T22:57:21.659Z,77.49
2023-03-06T23:02:23.535Z,77.33
2023-03-06T23:07:25.330Z,76.90
2023-03-06T23:12:35.643Z,76.46
2023-03-06T23:17:57.020Z,76.53
2023-03-06T23:23:18.099Z,76.38
2023-03-06T23:28:20.118Z,76.32
2023-03-06T23:33:22.467Z,76.17
2023-03-06T23:38:24.143Z,76.09
2023-03-06T23:43:25.874Z,75.94
2023-03-06T23:48:27.883Z,75.51
2023-03-06T23:53:29.580Z,75.58
2023-03-06T23:58:31.834Z,75.42
